sensor_id;sensor_type;location;lat;lon;timestamp;P1;durP1;ratioP1;P2;durP2;ratioP2
42770;SDS011;28426;42.872;25.314;2023-09-18T00:01:09;10.80;;;6.43;;
42770;SDS011;28426;42.872;25.314;2023-09-18T00:03:44;12.93;;;6.78;;
42770;SDS011;28426;42.872;25.314;2023-09-18T00:06:19;14.77;;;6.72;;
42770;SDS011;28426;42.872;25.314;2023-09-18T00:08:53;10.77;;;7.05;;
42770;SDS011;28426;42.872;25.314;2023-09-18T00:11:27;11.57;;;6.93;;
42770;SDS011;28426;42.872;25.314;2023-09-18T00:13:59;12.82;;;6.25;;
42770;SDS011;28426;42.872;25.314;2023-09-18T00:16:33;8.52;;;5.88;;
42770;SDS011;28426;42.872;25.314;2023-09-18T00:19:24;13.55;;;7.15;;
42770;SDS011;28426;42.872;25.314;2023-09-18T00:21:58;12.18;;;6.70;;
42770;SDS011;28426;42.872;25.314;2023-09-18T00:24:31;12.32;;;6.68;;
42770;SDS011;28426;42.872;25.314;2023-09-18T00:27:04;15.48;;;7.40;;
42770;SDS011;28426;42.872;25.314;2023-09-18T00:29:36;12.80;;;7.22;;
42770;SDS011;28426;42.872;25.314;2023-09-18T00:32:11;12.40;;;7.10;;
42770;SDS011;28426;42.872;25.314;2023-09-18T00:34:43;16.98;;;6.65;;
42770;SDS011;28426;42.872;25.314;2023-09-18T00:37:20;12.35;;;6.95;;
42770;SDS011;28426;42.872;25.314;2023-09-18T00:39:53;9.68;;;6.43;;
42770;SDS011;28426;42.872;25.314;2023-09-18T00:42:26;11.35;;;7.18;;
42770;SDS011;28426;42.872;25.314;2023-09-18T00:44:58;10.35;;;6.45;;
42770;SDS011;28426;42.872;25.314;2023-09-18T00:47:32;14.20;;;6.47;;
42770;SDS011;28426;42.872;25.314;2023-09-18T00:50:07;9.77;;;6.60;;
42770;SDS011;28426;42.872;25.314;2023-09-18T00:52:49;13.05;;;6.50;;
42770;SDS011;28426;42.872;25.314;2023-09-18T00:55:22;12.93;;;6.63;;
42770;SDS011;28426;42.872;25.314;2023-09-18T00:57:55;15.27;;;6.82;;
42770;SDS011;28426;42.872;25.314;2023-09-18T01:00:28;11.65;;;6.30;;
42770;SDS011;28426;42.872;25.314;2023-09-18T01:03:00;14.50;;;6.90;;
42770;SDS011;28426;42.872;25.314;2023-09-18T01:05:33;11.82;;;7.10;;
42770;SDS011;28426;42.872;25.314;2023-09-18T01:08:09;11.82;;;6.68;;
42770;SDS011;28426;42.872;25.314;2023-09-18T01:10:44;15.10;;;6.75;;
42770;SDS011;28426;42.872;25.314;2023-09-18T01:13:27;10.32;;;6.47;;
42770;SDS011;28426;42.872;25.314;2023-09-18T01:16:09;15.70;;;7.10;;
42770;SDS011;28426;42.872;25.314;2023-09-18T01:18:49;15.45;;;6.65;;
42770;SDS011;28426;42.872;25.314;2023-09-18T01:21:28;13.48;;;6.95;;
42770;SDS011;28426;42.872;25.314;2023-09-18T01:24:07;11.85;;;6.90;;
42770;SDS011;28426;42.872;25.314;2023-09-18T01:26:39;15.50;;;7.00;;
42770;SDS011;28426;42.872;25.314;2023-09-18T01:29:14;11.48;;;7.07;;
42770;SDS011;28426;42.872;25.314;2023-09-18T01:31:48;12.30;;;7.15;;
42770;SDS011;28426;42.872;25.314;2023-09-18T01:34:25;19.83;;;6.65;;
42770;SDS011;28426;42.872;25.314;2023-09-18T01:37:08;10.77;;;6.53;;
42770;SDS011;28426;42.872;25.314;2023-09-18T01:39:49;13.95;;;7.00;;
42770;SDS011;28426;42.872;25.314;2023-09-18T01:42:32;11.45;;;6.32;;
42770;SDS011;28426;42.872;25.314;2023-09-18T01:45:10;13.23;;;6.53;;
42770;SDS011;28426;42.872;25.314;2023-09-18T01:47:45;12.38;;;6.43;;
42770;SDS011;28426;42.872;25.314;2023-09-18T01:50:20;10.43;;;6.93;;
42770;SDS011;28426;42.872;25.314;2023-09-18T01:52:58;14.50;;;6.93;;
42770;SDS011;28426;42.872;25.314;2023-09-18T01:55:35;10.68;;;6.55;;
42770;SDS011;28426;42.872;25.314;2023-09-18T01:58:13;14.23;;;6.50;;
42770;SDS011;28426;42.872;25.314;2023-09-18T02:00:48;13.55;;;6.90;;
42770;SDS011;28426;42.872;25.314;2023-09-18T02:03:20;12.02;;;6.35;;
42770;SDS011;28426;42.872;25.314;2023-09-18T02:06:17;11.93;;;7.18;;
42770;SDS011;28426;42.872;25.314;2023-09-18T02:08:55;10.00;;;6.95;;
42770;SDS011;28426;42.872;25.314;2023-09-18T02:11:38;15.55;;;7.38;;
42770;SDS011;28426;42.872;25.314;2023-09-18T02:14:18;14.90;;;6.60;;
42770;SDS011;28426;42.872;25.314;2023-09-18T02:16:51;10.95;;;6.90;;
42770;SDS011;28426;42.872;25.314;2023-09-18T02:22:02;14.20;;;6.43;;
42770;SDS011;28426;42.872;25.314;2023-09-18T02:24:41;11.10;;;6.30;;
42770;SDS011;28426;42.872;25.314;2023-09-18T02:27:25;13.60;;;6.45;;
42770;SDS011;28426;42.872;25.314;2023-09-18T02:30:02;9.77;;;6.63;;
42770;SDS011;28426;42.872;25.314;2023-09-18T02:32:40;11.43;;;7.07;;
42770;SDS011;28426;42.872;25.314;2023-09-18T02:35:15;13.38;;;6.88;;
42770;SDS011;28426;42.872;25.314;2023-09-18T02:37:51;13.77;;;6.97;;
42770;SDS011;28426;42.872;25.314;2023-09-18T02:40:29;11.88;;;6.75;;
42770;SDS011;28426;42.872;25.314;2023-09-18T02:45:44;11.93;;;6.82;;
42770;SDS011;28426;42.872;25.314;2023-09-18T02:48:25;12.80;;;6.80;;
42770;SDS011;28426;42.872;25.314;2023-09-18T02:51:04;10.63;;;6.65;;
42770;SDS011;28426;42.872;25.314;2023-09-18T02:53:41;10.20;;;6.60;;
42770;SDS011;28426;42.872;25.314;2023-09-18T02:56:22;10.75;;;6.78;;
42770;SDS011;28426;42.872;25.314;2023-09-18T02:59:01;10.38;;;6.63;;
42770;SDS011;28426;42.872;25.314;2023-09-18T03:01:37;11.18;;;7.10;;
42770;SDS011;28426;42.872;25.314;2023-09-18T03:04:14;12.80;;;6.65;;
42770;SDS011;28426;42.872;25.314;2023-09-18T03:06:51;11.65;;;6.97;;
42770;SDS011;28426;42.872;25.314;2023-09-18T03:09:31;12.50;;;6.20;;
42770;SDS011;28426;42.872;25.314;2023-09-18T03:12:10;13.13;;;6.70;;
42770;SDS011;28426;42.872;25.314;2023-09-18T03:14:51;15.45;;;6.85;;
42770;SDS011;28426;42.872;25.314;2023-09-18T03:17:31;12.05;;;6.38;;
42770;SDS011;28426;42.872;25.314;2023-09-18T03:20:13;10.20;;;5.68;;
42770;SDS011;28426;42.872;25.314;2023-09-18T03:22:50;13.18;;;6.50;;
42770;SDS011;28426;42.872;25.314;2023-09-18T03:25:29;16.38;;;6.50;;
42770;SDS011;28426;42.872;25.314;2023-09-18T03:28:20;16.50;;;6.45;;
42770;SDS011;28426;42.872;25.314;2023-09-18T03:30:54;9.68;;;6.13;;
42770;SDS011;28426;42.872;25.314;2023-09-18T03:33:26;16.83;;;6.65;;
42770;SDS011;28426;42.872;25.314;2023-09-18T03:36:03;13.45;;;6.78;;
42770;SDS011;28426;42.872;25.314;2023-09-18T03:38:41;15.32;;;6.53;;
42770;SDS011;28426;42.872;25.314;2023-09-18T03:41:20;14.15;;;6.85;;
42770;SDS011;28426;42.872;25.314;2023-09-18T03:43:57;16.65;;;6.18;;
42770;SDS011;28426;42.872;25.314;2023-09-18T03:46:38;14.80;;;6.53;;
42770;SDS011;28426;42.872;25.314;2023-09-18T03:49:15;13.45;;;6.43;;
42770;SDS011;28426;42.872;25.314;2023-09-18T03:51:52;14.23;;;6.85;;
42770;SDS011;28426;42.872;25.314;2023-09-18T03:54:28;15.63;;;6.88;;
42770;SDS011;28426;42.872;25.314;2023-09-18T03:57:05;17.20;;;7.25;;
42770;SDS011;28426;42.872;25.314;2023-09-18T03:59:43;15.48;;;7.85;;
42770;SDS011;28426;42.872;25.314;2023-09-18T04:02:24;11.45;;;7.85;;
42770;SDS011;28426;42.872;25.314;2023-09-18T04:05:02;13.35;;;7.15;;
42770;SDS011;28426;42.872;25.314;2023-09-18T04:07:40;14.25;;;7.25;;
42770;SDS011;28426;42.872;25.314;2023-09-18T04:10:18;14.60;;;7.32;;
42770;SDS011;28426;42.872;25.314;2023-09-18T04:12:55;13.25;;;7.50;;
42770;SDS011;28426;42.872;25.314;2023-09-18T04:15:33;18.13;;;7.57;;
42770;SDS011;28426;42.872;25.314;2023-09-18T04:18:14;11.82;;;7.30;;
42770;SDS011;28426;42.872;25.314;2023-09-18T04:20:51;13.35;;;7.00;;
42770;SDS011;28426;42.872;25.314;2023-09-18T04:23:30;20.55;;;8.27;;
42770;SDS011;28426;42.872;25.314;2023-09-18T04:26:03;21.63;;;8.15;;
42770;SDS011;28426;42.872;25.314;2023-09-18T04:28:45;18.08;;;7.50;;
42770;SDS011;28426;42.872;25.314;2023-09-18T04:31:20;16.75;;;7.93;;
42770;SDS011;28426;42.872;25.314;2023-09-18T04:33:58;18.48;;;8.15;;
42770;SDS011;28426;42.872;25.314;2023-09-18T04:36:36;17.38;;;8.18;;
42770;SDS011;28426;42.872;25.314;2023-09-18T04:39:14;14.38;;;7.93;;
42770;SDS011;28426;42.872;25.314;2023-09-18T04:41:52;17.15;;;8.98;;
42770;SDS011;28426;42.872;25.314;2023-09-18T04:44:27;17.88;;;8.75;;
42770;SDS011;28426;42.872;25.314;2023-09-18T04:47:04;21.15;;;9.88;;
42770;SDS011;28426;42.872;25.314;2023-09-18T04:49:40;18.43;;;8.47;;
42770;SDS011;28426;42.872;25.314;2023-09-18T04:52:19;15.45;;;7.82;;
42770;SDS011;28426;42.872;25.314;2023-09-18T04:54:58;16.17;;;8.13;;
42770;SDS011;28426;42.872;25.314;2023-09-18T04:57:37;17.48;;;8.43;;
42770;SDS011;28426;42.872;25.314;2023-09-18T05:00:13;17.60;;;6.90;;
42770;SDS011;28426;42.872;25.314;2023-09-18T05:02:53;14.13;;;7.25;;
42770;SDS011;28426;42.872;25.314;2023-09-18T05:05:35;26.10;;;9.18;;
42770;SDS011;28426;42.872;25.314;2023-09-18T05:08:13;16.48;;;7.95;;
42770;SDS011;28426;42.872;25.314;2023-09-18T05:10:49;23.55;;;8.70;;
42770;SDS011;28426;42.872;25.314;2023-09-18T05:13:24;16.95;;;8.05;;
42770;SDS011;28426;42.872;25.314;2023-09-18T05:15:57;14.57;;;7.32;;
42770;SDS011;28426;42.872;25.314;2023-09-18T05:18:31;16.70;;;7.95;;
42770;SDS011;28426;42.872;25.314;2023-09-18T05:21:07;11.40;;;7.07;;
42770;SDS011;28426;42.872;25.314;2023-09-18T05:23:40;14.93;;;7.32;;
42770;SDS011;28426;42.872;25.314;2023-09-18T05:26:12;14.98;;;7.13;;
42770;SDS011;28426;42.872;25.314;2023-09-18T05:28:44;19.38;;;7.57;;
42770;SDS011;28426;42.872;25.314;2023-09-18T05:31:21;11.95;;;7.63;;
42770;SDS011;28426;42.872;25.314;2023-09-18T05:33:57;12.25;;;6.85;;
42770;SDS011;28426;42.872;25.314;2023-09-18T05:36:37;15.75;;;6.93;;
42770;SDS011;28426;42.872;25.314;2023-09-18T05:39:12;24.33;;;7.22;;
42770;SDS011;28426;42.872;25.314;2023-09-18T05:41:49;13.02;;;5.45;;
42770;SDS011;28426;42.872;25.314;2023-09-18T05:44:25;14.07;;;6.20;;
42770;SDS011;28426;42.872;25.314;2023-09-18T05:46:59;9.80;;;5.03;;
42770;SDS011;28426;42.872;25.314;2023-09-18T05:49:32;13.38;;;5.72;;
42770;SDS011;28426;42.872;25.314;2023-09-18T05:52:13;11.35;;;5.47;;
42770;SDS011;28426;42.872;25.314;2023-09-18T05:54:47;12.70;;;4.90;;
42770;SDS011;28426;42.872;25.314;2023-09-18T05:57:25;9.98;;;4.55;;
42770;SDS011;28426;42.872;25.314;2023-09-18T06:00:02;9.95;;;4.70;;
42770;SDS011;28426;42.872;25.314;2023-09-18T06:02:39;12.32;;;4.57;;
42770;SDS011;28426;42.872;25.314;2023-09-18T06:05:16;11.98;;;4.70;;
42770;SDS011;28426;42.872;25.314;2023-09-18T06:07:57;7.13;;;3.80;;
42770;SDS011;28426;42.872;25.314;2023-09-18T06:10:32;10.93;;;5.13;;
42770;SDS011;28426;42.872;25.314;2023-09-18T06:13:08;12.02;;;4.50;;
42770;SDS011;28426;42.872;25.314;2023-09-18T06:15:43;12.77;;;4.95;;
42770;SDS011;28426;42.872;25.314;2023-09-18T06:18:21;6.60;;;4.07;;
42770;SDS011;28426;42.872;25.314;2023-09-18T06:21:01;14.20;;;4.18;;
42770;SDS011;28426;42.872;25.314;2023-09-18T06:23:42;9.32;;;4.32;;
42770;SDS011;28426;42.872;25.314;2023-09-18T06:26:15;10.95;;;4.55;;
42770;SDS011;28426;42.872;25.314;2023-09-18T06:28:50;8.45;;;4.47;;
42770;SDS011;28426;42.872;25.314;2023-09-18T06:31:28;9.98;;;4.63;;
42770;SDS011;28426;42.872;25.314;2023-09-18T06:34:08;12.52;;;4.53;;
42770;SDS011;28426;42.872;25.314;2023-09-18T06:36:46;9.18;;;4.35;;
42770;SDS011;28426;42.872;25.314;2023-09-18T06:39:24;9.70;;;4.97;;
42770;SDS011;28426;42.872;25.314;2023-09-18T06:42:01;9.43;;;5.15;;
42770;SDS011;28426;42.872;25.314;2023-09-18T06:44:36;8.18;;;4.55;;
42770;SDS011;28426;42.872;25.314;2023-09-18T06:47:11;7.60;;;4.50;;
42770;SDS011;28426;42.872;25.314;2023-09-18T06:49:47;7.10;;;3.90;;
42770;SDS011;28426;42.872;25.314;2023-09-18T06:52:25;8.88;;;4.28;;
42770;SDS011;28426;42.872;25.314;2023-09-18T06:55:04;9.25;;;4.30;;
42770;SDS011;28426;42.872;25.314;2023-09-18T06:57:39;9.00;;;4.30;;
42770;SDS011;28426;42.872;25.314;2023-09-18T07:00:17;8.75;;;4.18;;
42770;SDS011;28426;42.872;25.314;2023-09-18T07:02:56;9.15;;;3.97;;
42770;SDS011;28426;42.872;25.314;2023-09-18T07:05:32;7.35;;;3.58;;
42770;SDS011;28426;42.872;25.314;2023-09-18T07:08:10;8.77;;;4.13;;
42770;SDS011;28426;42.872;25.314;2023-09-18T07:10:54;11.20;;;4.60;;
42770;SDS011;28426;42.872;25.314;2023-09-18T07:13:29;8.20;;;3.90;;
42770;SDS011;28426;42.872;25.314;2023-09-18T07:16:03;6.63;;;3.83;;
42770;SDS011;28426;42.872;25.314;2023-09-18T07:18:35;8.63;;;4.22;;
42770;SDS011;28426;42.872;25.314;2023-09-18T07:21:07;5.88;;;3.33;;
42770;SDS011;28426;42.872;25.314;2023-09-18T07:23:41;6.05;;;3.50;;
42770;SDS011;28426;42.872;25.314;2023-09-18T07:26:18;7.15;;;3.47;;
42770;SDS011;28426;42.872;25.314;2023-09-18T07:28:54;8.93;;;3.90;;
42770;SDS011;28426;42.872;25.314;2023-09-18T07:31:31;5.95;;;3.38;;
42770;SDS011;28426;42.872;25.314;2023-09-18T07:34:10;11.63;;;3.90;;
42770;SDS011;28426;42.872;25.314;2023-09-18T07:36:47;9.90;;;3.60;;
42770;SDS011;28426;42.872;25.314;2023-09-18T07:39:27;6.55;;;3.30;;
42770;SDS011;28426;42.872;25.314;2023-09-18T07:42:07;6.82;;;3.30;;
42770;SDS011;28426;42.872;25.314;2023-09-18T07:44:43;5.53;;;2.58;;
42770;SDS011;28426;42.872;25.314;2023-09-18T07:47:19;4.88;;;2.60;;
42770;SDS011;28426;42.872;25.314;2023-09-18T07:49:59;4.70;;;2.72;;
42770;SDS011;28426;42.872;25.314;2023-09-18T07:52:36;7.32;;;3.10;;
42770;SDS011;28426;42.872;25.314;2023-09-18T07:55:12;5.80;;;2.90;;
42770;SDS011;28426;42.872;25.314;2023-09-18T07:57:52;7.68;;;3.00;;
42770;SDS011;28426;42.872;25.314;2023-09-18T08:00:28;7.32;;;3.03;;
42770;SDS011;28426;42.872;25.314;2023-09-18T08:03:07;4.93;;;1.63;;
42770;SDS011;28426;42.872;25.314;2023-09-18T08:05:45;3.63;;;1.80;;
42770;SDS011;28426;42.872;25.314;2023-09-18T08:08:26;4.80;;;1.80;;
42770;SDS011;28426;42.872;25.314;2023-09-18T08:11:07;4.22;;;1.88;;
42770;SDS011;28426;42.872;25.314;2023-09-18T08:13:45;4.75;;;1.90;;
42770;SDS011;28426;42.872;25.314;2023-09-18T08:16:17;4.97;;;1.90;;
42770;SDS011;28426;42.872;25.314;2023-09-18T08:18:49;6.10;;;1.65;;
42770;SDS011;28426;42.872;25.314;2023-09-18T08:21:25;4.78;;;2.20;;
42770;SDS011;28426;42.872;25.314;2023-09-18T08:23:56;3.38;;;1.73;;
42770;SDS011;28426;42.872;25.314;2023-09-18T08:26:28;4.25;;;1.63;;
42770;SDS011;28426;42.872;25.314;2023-09-18T08:29:03;4.88;;;1.90;;
42770;SDS011;28426;42.872;25.314;2023-09-18T08:34:10;4.10;;;1.60;;
42770;SDS011;28426;42.872;25.314;2023-09-18T08:36:51;4.97;;;1.80;;
42770;SDS011;28426;42.872;25.314;2023-09-18T08:39:28;5.15;;;2.13;;
42770;SDS011;28426;42.872;25.314;2023-09-18T08:42:10;5.35;;;2.08;;
42770;SDS011;28426;42.872;25.314;2023-09-18T08:44:53;4.20;;;1.70;;
42770;SDS011;28426;42.872;25.314;2023-09-18T08:47:31;5.25;;;2.15;;
42770;SDS011;28426;42.872;25.314;2023-09-18T08:50:09;6.32;;;2.47;;
42770;SDS011;28426;42.872;25.314;2023-09-18T08:52:45;6.13;;;1.80;;
42770;SDS011;28426;42.872;25.314;2023-09-18T08:55:21;4.82;;;2.17;;
42770;SDS011;28426;42.872;25.314;2023-09-18T08:57:56;6.32;;;2.08;;
42770;SDS011;28426;42.872;25.314;2023-09-18T09:00:37;5.38;;;2.13;;
42770;SDS011;28426;42.872;25.314;2023-09-18T09:03:12;3.28;;;1.92;;
42770;SDS011;28426;42.872;25.314;2023-09-18T09:05:54;4.32;;;2.08;;
42770;SDS011;28426;42.872;25.314;2023-09-18T09:08:32;2.97;;;1.60;;
42770;SDS011;28426;42.872;25.314;2023-09-18T09:11:11;4.93;;;2.08;;
42770;SDS011;28426;42.872;25.314;2023-09-18T09:13:47;3.90;;;1.50;;
42770;SDS011;28426;42.872;25.314;2023-09-18T09:16:23;3.17;;;1.45;;
42770;SDS011;28426;42.872;25.314;2023-09-18T09:21:28;3.03;;;1.50;;
42770;SDS011;28426;42.872;25.314;2023-09-18T09:24:11;4.85;;;1.45;;
42770;SDS011;28426;42.872;25.314;2023-09-18T09:26:56;8.27;;;3.53;;
42770;SDS011;28426;42.872;25.314;2023-09-18T09:29:31;7.30;;;1.80;;
42770;SDS011;28426;42.872;25.314;2023-09-18T09:32:16;4.32;;;1.70;;
42770;SDS011;28426;42.872;25.314;2023-09-18T09:34:49;3.22;;;1.65;;
42770;SDS011;28426;42.872;25.314;2023-09-18T09:37:23;4.22;;;1.63;;
42770;SDS011;28426;42.872;25.314;2023-09-18T09:40:03;10.50;;;6.70;;
42770;SDS011;28426;42.872;25.314;2023-09-18T09:42:40;4.28;;;1.55;;
42770;SDS011;28426;42.872;25.314;2023-09-18T09:45:14;3.70;;;1.45;;
42770;SDS011;28426;42.872;25.314;2023-09-18T09:47:50;5.43;;;1.70;;
42770;SDS011;28426;42.872;25.314;2023-09-18T09:50:27;5.25;;;1.77;;
42770;SDS011;28426;42.872;25.314;2023-09-18T09:53:03;4.45;;;1.55;;
42770;SDS011;28426;42.872;25.314;2023-09-18T09:55:38;7.00;;;1.67;;
42770;SDS011;28426;42.872;25.314;2023-09-18T09:58:19;5.20;;;1.70;;
42770;SDS011;28426;42.872;25.314;2023-09-18T10:01:06;5.88;;;1.85;;
42770;SDS011;28426;42.872;25.314;2023-09-18T10:03:51;4.60;;;1.80;;
42770;SDS011;28426;42.872;25.314;2023-09-18T10:06:30;6.65;;;2.28;;
42770;SDS011;28426;42.872;25.314;2023-09-18T10:09:12;7.40;;;1.63;;
42770;SDS011;28426;42.872;25.314;2023-09-18T10:11:48;3.33;;;1.65;;
42770;SDS011;28426;42.872;25.314;2023-09-18T10:14:29;4.13;;;1.65;;
42770;SDS011;28426;42.872;25.314;2023-09-18T10:17:26;4.50;;;1.90;;
42770;SDS011;28426;42.872;25.314;2023-09-18T10:20:06;5.07;;;1.80;;
42770;SDS011;28426;42.872;25.314;2023-09-18T10:22:46;4.47;;;1.70;;
42770;SDS011;28426;42.872;25.314;2023-09-18T10:25:28;5.47;;;1.83;;
42770;SDS011;28426;42.872;25.314;2023-09-18T10:28:04;5.07;;;1.80;;
42770;SDS011;28426;42.872;25.314;2023-09-18T10:30:43;3.22;;;1.65;;
42770;SDS011;28426;42.872;25.314;2023-09-18T10:33:21;3.78;;;1.48;;
42770;SDS011;28426;42.872;25.314;2023-09-18T10:36:04;3.40;;;1.58;;
42770;SDS011;28426;42.872;25.314;2023-09-18T10:38:48;6.43;;;1.75;;
42770;SDS011;28426;42.872;25.314;2023-09-18T10:41:26;4.72;;;1.73;;
42770;SDS011;28426;42.872;25.314;2023-09-18T10:44:03;3.38;;;1.60;;
42770;SDS011;28426;42.872;25.314;2023-09-18T10:46:40;4.43;;;1.80;;
42770;SDS011;28426;42.872;25.314;2023-09-18T10:49:16;6.10;;;1.92;;
42770;SDS011;28426;42.872;25.314;2023-09-18T10:51:56;5.47;;;1.58;;
42770;SDS011;28426;42.872;25.314;2023-09-18T10:54:32;3.03;;;1.55;;
42770;SDS011;28426;42.872;25.314;2023-09-18T10:57:09;4.78;;;1.65;;
42770;SDS011;28426;42.872;25.314;2023-09-18T10:59:46;3.63;;;1.85;;
42770;SDS011;28426;42.872;25.314;2023-09-18T11:02:22;4.22;;;1.98;;
42770;SDS011;28426;42.872;25.314;2023-09-18T11:05:00;2.88;;;1.90;;
42770;SDS011;28426;42.872;25.314;2023-09-18T11:07:41;5.00;;;2.25;;
42770;SDS011;28426;42.872;25.314;2023-09-18T11:10:27;2.92;;;1.67;;
42770;SDS011;28426;42.872;25.314;2023-09-18T11:13:05;4.43;;;2.08;;
42770;SDS011;28426;42.872;25.314;2023-09-18T11:15:41;4.15;;;1.83;;
42770;SDS011;28426;42.872;25.314;2023-09-18T11:18:17;5.18;;;1.70;;
42770;SDS011;28426;42.872;25.314;2023-09-18T11:21:06;7.13;;;2.88;;
42770;SDS011;28426;42.872;25.314;2023-09-18T11:23:44;3.15;;;1.60;;
42770;SDS011;28426;42.872;25.314;2023-09-18T11:26:16;5.43;;;1.73;;
42770;SDS011;28426;42.872;25.314;2023-09-18T11:28:52;8.40;;;1.95;;
42770;SDS011;28426;42.872;25.314;2023-09-18T11:34:22;3.65;;;1.63;;
42770;SDS011;28426;42.872;25.314;2023-09-18T11:36:59;3.03;;;1.50;;
42770;SDS011;28426;42.872;25.314;2023-09-18T11:39:53;5.95;;;1.80;;
42770;SDS011;28426;42.872;25.314;2023-09-18T11:42:32;5.28;;;1.73;;
42770;SDS011;28426;42.872;25.314;2023-09-18T11:47:48;3.22;;;1.75;;
42770;SDS011;28426;42.872;25.314;2023-09-18T11:50:25;6.47;;;2.25;;
42770;SDS011;28426;42.872;25.314;2023-09-18T11:53:05;4.78;;;2.00;;
42770;SDS011;28426;42.872;25.314;2023-09-18T11:55:47;2.78;;;1.48;;
42770;SDS011;28426;42.872;25.314;2023-09-18T11:58:24;3.83;;;1.70;;
42770;SDS011;28426;42.872;25.314;2023-09-18T12:00:59;2.78;;;1.40;;
42770;SDS011;28426;42.872;25.314;2023-09-18T12:03:43;4.53;;;1.70;;
42770;SDS011;28426;42.872;25.314;2023-09-18T12:06:18;3.25;;;1.83;;
42770;SDS011;28426;42.872;25.314;2023-09-18T12:08:57;4.25;;;2.00;;
42770;SDS011;28426;42.872;25.314;2023-09-18T12:11:37;4.60;;;2.10;;
42770;SDS011;28426;42.872;25.314;2023-09-18T12:14:21;5.53;;;2.35;;
42770;SDS011;28426;42.872;25.314;2023-09-18T12:16:56;4.75;;;2.00;;
42770;SDS011;28426;42.872;25.314;2023-09-18T12:22:04;4.68;;;2.28;;
42770;SDS011;28426;42.872;25.314;2023-09-18T12:24:39;3.13;;;1.98;;
42770;SDS011;28426;42.872;25.314;2023-09-18T12:27:17;4.30;;;2.50;;
42770;SDS011;28426;42.872;25.314;2023-09-18T12:29:56;3.78;;;2.15;;
42770;SDS011;28426;42.872;25.314;2023-09-18T12:32:36;3.63;;;2.22;;
42770;SDS011;28426;42.872;25.314;2023-09-18T12:35:13;5.93;;;2.88;;
42770;SDS011;28426;42.872;25.314;2023-09-18T12:37:47;3.85;;;2.30;;
42770;SDS011;28426;42.872;25.314;2023-09-18T12:40:23;4.83;;;2.70;;
42770;SDS011;28426;42.872;25.314;2023-09-18T12:43:04;6.47;;;2.33;;
42770;SDS011;28426;42.872;25.314;2023-09-18T12:45:41;5.68;;;2.42;;
42770;SDS011;28426;42.872;25.314;2023-09-18T12:48:18;4.00;;;2.47;;
42770;SDS011;28426;42.872;25.314;2023-09-18T12:50:54;7.32;;;3.20;;
42770;SDS011;28426;42.872;25.314;2023-09-18T12:53:29;4.63;;;2.47;;
42770;SDS011;28426;42.872;25.314;2023-09-18T12:56:05;4.00;;;2.50;;
42770;SDS011;28426;42.872;25.314;2023-09-18T12:58:46;4.53;;;2.60;;
42770;SDS011;28426;42.872;25.314;2023-09-18T13:01:40;4.75;;;2.60;;
42770;SDS011;28426;42.872;25.314;2023-09-18T13:04:19;4.25;;;2.65;;
42770;SDS011;28426;42.872;25.314;2023-09-18T13:07:04;5.28;;;2.85;;
42770;SDS011;28426;42.872;25.314;2023-09-18T13:09:41;6.05;;;2.97;;
42770;SDS011;28426;42.872;25.314;2023-09-18T13:12:16;5.85;;;2.60;;
42770;SDS011;28426;42.872;25.314;2023-09-18T13:15:01;4.35;;;2.53;;
42770;SDS011;28426;42.872;25.314;2023-09-18T13:17:41;6.35;;;3.05;;
42770;SDS011;28426;42.872;25.314;2023-09-18T13:20:20;7.90;;;2.67;;
42770;SDS011;28426;42.872;25.314;2023-09-18T13:23:00;6.97;;;3.72;;
42770;SDS011;28426;42.872;25.314;2023-09-18T13:25:37;4.35;;;2.70;;
42770;SDS011;28426;42.872;25.314;2023-09-18T13:28:15;6.13;;;2.92;;
42770;SDS011;28426;42.872;25.314;2023-09-18T13:30:57;4.90;;;3.00;;
42770;SDS011;28426;42.872;25.314;2023-09-18T13:33:37;6.43;;;3.15;;
42770;SDS011;28426;42.872;25.314;2023-09-18T13:36:21;6.60;;;2.90;;
42770;SDS011;28426;42.872;25.314;2023-09-18T13:38:57;5.32;;;3.63;;
42770;SDS011;28426;42.872;25.314;2023-09-18T13:41:32;4.50;;;2.67;;
42770;SDS011;28426;42.872;25.314;2023-09-18T13:44:06;4.63;;;2.78;;
42770;SDS011;28426;42.872;25.314;2023-09-18T13:46:45;5.95;;;2.80;;
42770;SDS011;28426;42.872;25.314;2023-09-18T13:49:19;7.30;;;3.55;;
42770;SDS011;28426;42.872;25.314;2023-09-18T13:51:55;6.70;;;3.17;;
42770;SDS011;28426;42.872;25.314;2023-09-18T13:54:31;4.85;;;2.90;;
42770;SDS011;28426;42.872;25.314;2023-09-18T13:57:06;5.65;;;3.13;;
42770;SDS011;28426;42.872;25.314;2023-09-18T13:59:42;6.95;;;2.90;;
42770;SDS011;28426;42.872;25.314;2023-09-18T14:02:23;5.63;;;2.90;;
42770;SDS011;28426;42.872;25.314;2023-09-18T14:05:01;4.15;;;2.63;;
42770;SDS011;28426;42.872;25.314;2023-09-18T14:07:36;5.93;;;3.00;;
42770;SDS011;28426;42.872;25.314;2023-09-18T14:10:17;5.10;;;3.15;;
42770;SDS011;28426;42.872;25.314;2023-09-18T14:12:50;6.50;;;3.20;;
42770;SDS011;28426;42.872;25.314;2023-09-18T14:15:25;5.53;;;2.90;;
42770;SDS011;28426;42.872;25.314;2023-09-18T14:18:05;5.80;;;2.95;;
42770;SDS011;28426;42.872;25.314;2023-09-18T14:20:42;6.63;;;3.28;;
42770;SDS011;28426;42.872;25.314;2023-09-18T14:23:16;5.45;;;3.25;;
42770;SDS011;28426;42.872;25.314;2023-09-18T14:28:25;6.35;;;3.13;;
42770;SDS011;28426;42.872;25.314;2023-09-18T14:31:03;4.65;;;2.80;;
42770;SDS011;28426;42.872;25.314;2023-09-18T14:33:40;5.35;;;3.25;;
42770;SDS011;28426;42.872;25.314;2023-09-18T14:36:16;7.32;;;3.40;;
42770;SDS011;28426;42.872;25.314;2023-09-18T14:38:51;5.50;;;2.97;;
42770;SDS011;28426;42.872;25.314;2023-09-18T14:41:27;6.57;;;3.20;;
42770;SDS011;28426;42.872;25.314;2023-09-18T14:44:03;6.03;;;3.10;;
42770;SDS011;28426;42.872;25.314;2023-09-18T14:46:38;7.35;;;3.20;;
42770;SDS011;28426;42.872;25.314;2023-09-18T14:49:21;6.53;;;3.20;;
42770;SDS011;28426;42.872;25.314;2023-09-18T14:51:58;7.90;;;3.25;;
42770;SDS011;28426;42.872;25.314;2023-09-18T14:54:35;5.82;;;3.50;;
42770;SDS011;28426;42.872;25.314;2023-09-18T14:57:13;6.78;;;3.30;;
42770;SDS011;28426;42.872;25.314;2023-09-18T14:59:50;10.43;;;3.88;;
42770;SDS011;28426;42.872;25.314;2023-09-18T15:02:26;6.22;;;3.20;;
42770;SDS011;28426;42.872;25.314;2023-09-18T15:05:10;5.25;;;2.70;;
42770;SDS011;28426;42.872;25.314;2023-09-18T15:07:46;6.10;;;3.10;;
42770;SDS011;28426;42.872;25.314;2023-09-18T15:10:24;4.85;;;3.22;;
42770;SDS011;28426;42.872;25.314;2023-09-18T15:12:59;6.05;;;3.30;;
42770;SDS011;28426;42.872;25.314;2023-09-18T15:15:34;8.13;;;3.45;;
42770;SDS011;28426;42.872;25.314;2023-09-18T15:18:10;5.78;;;3.13;;
42770;SDS011;28426;42.872;25.314;2023-09-18T15:20:48;6.13;;;3.00;;
42770;SDS011;28426;42.872;25.314;2023-09-18T15:23:24;4.82;;;3.03;;
42770;SDS011;28426;42.872;25.314;2023-09-18T15:26:01;5.25;;;2.80;;
42770;SDS011;28426;42.872;25.314;2023-09-18T15:28:37;6.68;;;3.30;;
42770;SDS011;28426;42.872;25.314;2023-09-18T15:31:15;6.75;;;3.08;;
42770;SDS011;28426;42.872;25.314;2023-09-18T15:33:53;7.85;;;3.75;;
42770;SDS011;28426;42.872;25.314;2023-09-18T15:36:32;5.90;;;3.40;;
42770;SDS011;28426;42.872;25.314;2023-09-18T15:39:06;6.78;;;3.65;;
42770;SDS011;28426;42.872;25.314;2023-09-18T15:41:43;5.40;;;3.05;;
42770;SDS011;28426;42.872;25.314;2023-09-18T15:44:21;7.25;;;3.30;;
42770;SDS011;28426;42.872;25.314;2023-09-18T15:46:59;7.28;;;3.70;;
42770;SDS011;28426;42.872;25.314;2023-09-18T15:49:36;11.25;;;3.50;;